Time;durP1;ratioP1;P1;durP2;ratioP2;P2;SDS_P1;SDS_P2;PMS_P1;PMS_P2;Temp;Humidity;BMP_temperature;BMP_pressure;BME280_temperature;BME280_humidity;BME280_pressure;Samples;Min_cycle;Max_cycle;Signal;HPM_P1;HPM_P2
2021/12/14 00:01:38;;;;;;;18.48;8.88;;;;;;;;;;5066052;28;20020;-64
2021/12/14 00:04:09;;;;;;;20.15;9.27;;;;;;;;;;5065887;28;20031;-63
2021/12/14 00:06:35;;;;;;;17.85;9.30;;;;;;;;;;5065977;28;20111;-61
2021/12/14 00:09:02;;;;;;;18.98;9.23;;;;;;;;;;5061652;28;20479;-64
2021/12/14 00:17:11;;;;;;;18.77;9.25;;;;;;;;;;5054871;28;20033;-58
2021/12/14 00:19:37;;;;;;;18.05;9.75;;;;;;;;;;5048327;28;20115;-58
2021/12/14 00:22:17;;;;;;;21.45;9.85;;;;;;;;;;5050259;28;20053;-56
2021/12/14 00:24:43;;;;;;;17.80;10.35;;;;;;;;;;5049128;28;20510;-58
2021/12/14 00:27:11;;;;;;;26.15;11.70;;;;;;;;;;5054958;28;20073;-56
2021/12/14 00:29:45;;;;;;;22.25;10.75;;;;;;;;;;5052109;28;20112;-58
2021/12/14 00:32:18;;;;;;;20.80;10.48;;;;;;;;;;5052057;28;20036;-60
2021/12/14 00:34:45;;;;;;;22.98;10.70;;;;;;;;;;5050679;28;20399;-57
2021/12/14 00:37:26;;;;;;;17.20;9.57;;;;;;;;;;5053986;28;20033;-59
2021/12/14 00:39:54;;;;;;;23.48;12.13;;;;;;;;;;5051399;28;20021;-56
2021/12/14 00:42:21;;;;;;;23.88;12.23;;;;;;;;;;5051594;28;20086;-59
2021/12/14 00:44:48;;;;;;;22.33;11.65;;;;;;;;;;5053578;28;20119;-57
2021/12/14 00:47:14;;;;;;;20.33;10.95;;;;;;;;;;5055043;28;20025;-59
2021/12/14 00:49:40;;;;;;;22.50;12.02;;;;;;;;;;5053058;28;20035;-57
2021/12/14 00:52:07;;;;;;;20.60;12.07;;;;;;;;;;5052791;28;20043;-59
2021/12/14 00:54:34;;;;;;;21.92;12.20;;;;;;;;;;5053263;28;20503;-67
2021/12/14 00:57:00;;;;;;;20.17;11.52;;;;;;;;;;5052930;28;20114;-62
2021/12/14 00:59:26;;;;;;;22.33;11.40;;;;;;;;;;5052837;28;20045;-65
2021/12/14 01:01:56;;;;;;;22.17;11.45;;;;;;;;;;5050148;28;20021;-65
2021/12/14 01:04:32;;;;;;;23.63;11.55;;;;;;;;;;5049916;28;20032;-66
2021/12/14 01:07:00;;;;;;;23.67;11.02;;;;;;;;;;5052188;28;20114;-64
2021/12/14 01:09:30;;;;;;;20.80;10.23;;;;;;;;;;5049917;28;20071;-63
2021/12/14 01:12:02;;;;;;;20.35;11.43;;;;;;;;;;5049560;28;20063;-64
2021/12/14 01:14:41;;;;;;;23.33;11.43;;;;;;;;;;5051573;28;20128;-64
2021/12/14 01:17:14;;;;;;;24.50;11.18;;;;;;;;;;5048371;28;20468;-65
2021/12/14 01:19:43;;;;;;;22.25;11.88;;;;;;;;;;5050532;28;20017;-65
2021/12/14 01:22:37;;;;;;;26.45;12.82;;;;;;;;;;5054910;28;20112;-65
2021/12/14 01:25:11;;;;;;;27.58;12.00;;;;;;;;;;5047582;28;20479;-66
2021/12/14 01:28:06;;;;;;;28.40;13.15;;;;;;;;;;5047995;28;20028;-66
2021/12/14 01:31:15;;;;;;;25.77;12.82;;;;;;;;;;5051418;28;20120;-61
2021/12/14 01:33:39;;;;;;;30.50;13.35;;;;;;;;;;5053167;28;20044;-63
2021/12/14 01:36:11;;;;;;;32.60;13.32;;;;;;;;;;5052489;28;20614;-63
2021/12/14 01:39:08;;;;;;;29.75;13.10;;;;;;;;;;5049366;28;20029;-65
2021/12/14 01:41:30;;;;;;;25.30;12.90;;;;;;;;;;5053215;28;20045;-65
2021/12/14 01:43:57;;;;;;;26.75;12.50;;;;;;;;;;5048761;28;20029;-65
2021/12/14 01:46:55;;;;;;;23.48;11.55;;;;;;;;;;5051299;28;20043;-66
2021/12/14 01:49:23;;;;;;;24.90;11.35;;;;;;;;;;5044738;28;20037;-66
2021/12/14 01:51:52;;;;;;;23.98;12.38;;;;;;;;;;5049582;28;20025;-66
2021/12/14 01:54:21;;;;;;;28.75;13.10;;;;;;;;;;5045521;28;20035;-66
2021/12/14 01:56:47;;;;;;;25.50;13.30;;;;;;;;;;5051814;28;20029;-62
2021/12/14 01:59:22;;;;;;;26.35;13.20;;;;;;;;;;5051586;28;20029;-66
2021/12/14 02:02:07;;;;;;;28.05;13.43;;;;;;;;;;5053647;28;20032;-65
2021/12/14 02:04:33;;;;;;;28.38;14.07;;;;;;;;;;5051053;28;20024;-65
2021/12/14 02:07:03;;;;;;;28.90;13.63;;;;;;;;;;5053921;28;20021;-65
2021/12/14 02:09:31;;;;;;;32.50;14.30;;;;;;;;;;5048909;28;20025;-64
2021/12/14 02:12:00;;;;;;;30.27;14.35;;;;;;;;;;5050320;28;20499;-63
2021/12/14 02:14:27;;;;;;;32.15;15.07;;;;;;;;;;5049852;28;20028;-65
2021/12/14 02:17:00;;;;;;;29.65;14.10;;;;;;;;;;5051864;28;20028;-65
2021/12/14 02:19:26;;;;;;;30.17;13.30;;;;;;;;;;5048501;28;20031;-66
2021/12/14 02:21:53;;;;;;;28.73;14.20;;;;;;;;;;5048481;28;21274;-66
2021/12/14 02:24:22;;;;;;;29.58;13.30;;;;;;;;;;5048600;28;20032;-66
2021/12/14 02:26:49;;;;;;;24.38;12.40;;;;;;;;;;5048655;28;20044;-66
2021/12/14 02:29:27;;;;;;;27.55;12.82;;;;;;;;;;5048523;28;20024;-65
2021/12/14 02:32:00;;;;;;;27.27;13.45;;;;;;;;;;5055799;28;20511;-65
2021/12/14 02:34:26;;;;;;;26.55;12.73;;;;;;;;;;5050209;28;20116;-66
2021/12/14 02:36:52;;;;;;;26.52;12.88;;;;;;;;;;5051649;28;20392;-65
2021/12/14 02:42:11;;;;;;;26.25;13.07;;;;;;;;;;5052522;28;20427;-66
2021/12/14 02:44:37;;;;;;;29.50;14.10;;;;;;;;;;5051411;28;20388;-65
2021/12/14 02:47:09;;;;;;;32.60;14.98;;;;;;;;;;5055506;28;20025;-62
2021/12/14 02:49:36;;;;;;;27.10;14.10;;;;;;;;;;5055644;28;20033;-65
2021/12/14 02:52:06;;;;;;;25.42;14.23;;;;;;;;;;5055406;28;20507;-63
2021/12/14 02:54:35;;;;;;;;;;;;;;;;;;5055784;28;20420;-65
2021/12/14 02:57:09;;;;;;;27.52;13.50;;;;;;;;;;5052840;28;19913;-62
2021/12/14 02:59:37;;;;;;;28.27;13.93;;;;;;;;;;5055431;28;20036;-66
2021/12/14 03:02:07;;;;;;;25.55;13.32;;;;;;;;;;5054998;28;20029;-63
2021/12/14 03:04:45;;;;;;;29.98;14.30;;;;;;;;;;5051581;28;20032;-63
2021/12/14 03:07:12;;;;;;;27.63;14.35;;;;;;;;;;5050456;28;20048;-64
2021/12/14 03:09:56;;;;;;;27.95;14.07;;;;;;;;;;5049477;28;20017;-66
2021/12/14 03:12:39;;;;;;;27.35;14.25;;;;;;;;;;5053023;28;20036;-66
2021/12/14 03:15:15;;;;;;;27.85;13.85;;;;;;;;;;5051453;28;20431;-63
2021/12/14 03:17:43;;;;;;;30.20;14.25;;;;;;;;;;5054586;28;20171;-65
2021/12/14 03:20:22;;;;;;;28.92;14.80;;;;;;;;;;5056090;28;20021;-66
2021/12/14 03:22:57;;;;;;;32.40;15.00;;;;;;;;;;5053799;28;20017;-62
2021/12/14 03:25:23;;;;;;;30.98;14.45;;;;;;;;;;5048349;28;20040;-66
2021/12/14 03:27:51;;;;;;;30.98;14.43;;;;;;;;;;5056809;28;20025;-66
2021/12/14 03:30:23;;;;;;;28.52;14.85;;;;;;;;;;5051504;28;20021;-61
2021/12/14 03:32:49;;;;;;;29.38;14.98;;;;;;;;;;5056670;28;20032;-65
2021/12/14 03:35:14;;;;;;;28.33;14.80;;;;;;;;;;5056743;28;20021;-66
2021/12/14 03:37:40;;;;;;;32.15;14.23;;;;;;;;;;5050677;28;20032;-63
2021/12/14 03:40:07;;;;;;;29.10;14.88;;;;;;;;;;5056097;28;20045;-61
2021/12/14 03:42:39;;;;;;;31.67;14.82;;;;;;;;;;5056404;28;20028;-60
2021/12/14 03:45:19;;;;;;;32.80;15.82;;;;;;;;;;5049327;28;20037;-60
2021/12/14 03:47:49;;;;;;;37.00;16.17;;;;;;;;;;5054112;28;20049;-57
2021/12/14 03:50:26;;;;;;;45.80;19.80;;;;;;;;;;5051299;28;20029;-60
2021/12/14 03:52:52;;;;;;;39.78;18.45;;;;;;;;;;5050617;28;20029;-64
2021/12/14 03:55:29;;;;;;;42.03;18.77;;;;;;;;;;5056277;28;20025;-61
2021/12/14 03:57:54;;;;;;;34.25;15.82;;;;;;;;;;5051018;28;20484;-59
2021/12/14 04:00:32;;;;;;;31.33;15.93;;;;;;;;;;5054899;28;20035;-60
2021/12/14 04:03:04;;;;;;;33.20;15.50;;;;;;;;;;5054081;28;20507;-60
2021/12/14 04:05:29;;;;;;;33.17;15.85;;;;;;;;;;5054493;28;20036;-64
2021/12/14 04:07:55;;;;;;;35.03;16.25;;;;;;;;;;5055828;28;20109;-60
2021/12/14 04:10:25;;;;;;;29.75;15.18;;;;;;;;;;5051713;28;20021;-60
2021/12/14 04:12:52;;;;;;;31.20;14.45;;;;;;;;;;5054137;28;20062;-60
2021/12/14 04:15:18;;;;;;;29.10;15.13;;;;;;;;;;5054982;28;20068;-60
2021/12/14 04:17:44;;;;;;;24.98;14.45;;;;;;;;;;5053658;28;20048;-62
2021/12/14 04:20:14;;;;;;;27.67;13.32;;;;;;;;;;5050818;28;20077;-59
2021/12/14 04:22:40;;;;;;;28.50;14.60;;;;;;;;;;5052613;28;20518;-59
2021/12/14 04:25:11;;;;;;;31.50;14.82;;;;;;;;;;5053473;28;20037;-58
2021/12/14 04:27:37;;;;;;;29.98;15.77;;;;;;;;;;5050527;28;20493;-58
2021/12/14 04:30:07;;;;;;;26.30;13.93;;;;;;;;;;5050452;28;20116;-59
2021/12/14 04:32:33;;;;;;;30.98;13.95;;;;;;;;;;5050904;28;20029;-64
2021/12/14 04:34:59;;;;;;;28.65;14.07;;;;;;;;;;5049871;28;20519;-61
2021/12/14 04:37:25;;;;;;;26.20;13.40;;;;;;;;;;5051241;28;20024;-66
2021/12/14 04:40:10;;;;;;;27.55;14.65;;;;;;;;;;5053409;28;20047;-64
2021/12/14 04:53:49;;;;;;;31.13;15.15;;;;;;;;;;5049642;28;20083;-66
2021/12/14 04:56:26;;;;;;;28.48;13.93;;;;;;;;;;5052249;28;20040;-66
2021/12/14 04:58:57;;;;;;;26.98;13.95;;;;;;;;;;5048559;28;20032;-66
2021/12/14 05:01:23;;;;;;;32.20;15.23;;;;;;;;;;5049547;28;20341;-64
2021/12/14 05:03:56;;;;;;;30.13;14.43;;;;;;;;;;5051989;28;20040;-65
2021/12/14 05:06:25;;;;;;;33.05;15.23;;;;;;;;;;5048528;28;20047;-66
2021/12/14 05:11:23;;;;;;;33.80;15.43;;;;;;;;;;5051733;28;20018;-65
2021/12/14 05:14:03;;;;;;;31.77;15.45;;;;;;;;;;5050443;28;20025;-63
2021/12/14 05:16:30;;;;;;;29.95;15.07;;;;;;;;;;5054037;28;20028;-65
2021/12/14 05:19:04;;;;;;;37.55;18.55;;;;;;;;;;5052290;28;20045;-64
2021/12/14 05:21:37;;;;;;;39.30;18.80;;;;;;;;;;5052630;28;20024;-66
2021/12/14 05:24:06;;;;;;;39.22;17.75;;;;;;;;;;5049909;28;20037;-67
2021/12/14 05:26:32;;;;;;;33.10;17.30;;;;;;;;;;5053034;28;20036;-65
2021/12/14 05:28:58;;;;;;;31.85;15.15;;;;;;;;;;5050219;28;20033;-63
2021/12/14 05:31:24;;;;;;;30.25;15.45;;;;;;;;;;5051084;28;20036;-66
2021/12/14 05:33:53;;;;;;;30.00;13.85;;;;;;;;;;5049399;28;20025;-65
2021/12/14 05:36:21;;;;;;;27.08;13.43;;;;;;;;;;5052020;28;20029;-65
2021/12/14 05:44:08;;;;;;;25.20;13.32;;;;;;;;;;5050418;28;20044;-65
2021/12/14 05:46:35;;;;;;;29.45;13.52;;;;;;;;;;5051159;28;20025;-65
2021/12/14 05:49:06;;;;;;;26.92;13.98;;;;;;;;;;5050260;28;20025;-65
2021/12/14 05:51:33;;;;;;;29.02;14.05;;;;;;;;;;5051673;28;20037;-63
2021/12/14 05:53:59;;;;;;;26.60;13.57;;;;;;;;;;5051708;28;20075;-59
2021/12/14 05:56:27;;;;;;;24.77;13.13;;;;;;;;;;5051490;28;20067;-61
2021/12/14 05:58:55;;;;;;;25.40;13.25;;;;;;;;;;5050417;28;20554;-61
2021/12/14 06:01:25;;;;;;;26.35;13.57;;;;;;;;;;5050143;28;20403;-61
2021/12/14 06:04:02;;;;;;;24.88;12.90;;;;;;;;;;5050520;28;20094;-60
2021/12/14 06:06:32;;;;;;;26.02;12.60;;;;;;;;;;5048857;28;20062;-60
2021/12/14 06:09:10;;;;;;;31.98;14.32;;;;;;;;;;5051812;28;20383;-59
2021/12/14 06:11:36;;;;;;;26.40;13.68;;;;;;;;;;5050384;28;20066;-59
2021/12/14 06:14:02;;;;;;;24.55;13.98;;;;;;;;;;5045759;28;20071;-60
2021/12/14 06:16:33;;;;;;;26.52;13.80;;;;;;;;;;5051276;28;20044;-59
2021/12/14 06:19:17;;;;;;;24.17;12.65;;;;;;;;;;5051168;28;20029;-60
2021/12/14 06:21:44;;;;;;;23.77;12.85;;;;;;;;;;5049088;28;20382;-60
2021/12/14 06:24:11;;;;;;;28.90;12.70;;;;;;;;;;5048606;28;20053;-59
2021/12/14 06:26:41;;;;;;;24.65;12.52;;;;;;;;;;5048088;28;20112;-59
2021/12/14 06:29:13;;;;;;;28.23;13.68;;;;;;;;;;5052149;28;20021;-59
2021/12/14 06:31:40;;;;;;;25.83;12.88;;;;;;;;;;5050318;28;20086;-58
2021/12/14 06:34:21;;;;;;;29.48;12.68;;;;;;;;;;5049055;28;20029;-65
2021/12/14 06:36:52;;;;;;;24.55;12.88;;;;;;;;;;5047273;28;20383;-65
2021/12/14 06:39:18;;;;;;;;;;;;;;;;;;5048581;28;20059;-65
2021/12/14 06:41:44;;;;;;;22.58;11.27;;;;;;;;;;5051049;28;20360;-65
2021/12/14 06:44:09;;;;;;;23.30;11.48;;;;;;;;;;5051040;28;20053;-66
2021/12/14 06:46:39;;;;;;;22.88;12.63;;;;;;;;;;5048167;28;20618;-64
2021/12/14 06:49:09;;;;;;;23.98;13.07;;;;;;;;;;5048933;28;20052;-64
2021/12/14 06:51:50;;;;;;;21.38;12.48;;;;;;;;;;5050970;28;20102;-66
2021/12/14 06:54:27;;;;;;;23.40;12.15;;;;;;;;;;5050159;28;20055;-65
2021/12/14 06:56:57;;;;;;;25.35;12.05;;;;;;;;;;5047751;28;20047;-65
2021/12/14 06:59:23;;;;;;;21.63;11.23;;;;;;;;;;5047976;28;20506;-66
2021/12/14 07:02:01;;;;;;;21.67;11.40;;;;;;;;;;5051442;28;20048;-67
2021/12/14 07:04:32;;;;;;;27.10;12.60;;;;;;;;;;5047821;28;20034;-63
2021/12/14 07:07:08;;;;;;;28.73;13.43;;;;;;;;;;5050866;28;20076;-66
2021/12/14 07:09:39;;;;;;;32.08;14.63;;;;;;;;;;5050771;28;20159;-65
2021/12/14 07:12:04;;;;;;;;;;;;;;;;;;5048986;28;20506;-65
2021/12/14 07:14:38;;;;;;;23.95;11.10;;;;;;;;;;5050923;28;19917;-65
2021/12/14 07:17:16;;;;;;;22.48;11.93;;;;;;;;;;5048464;28;20029;-64
2021/12/14 07:19:52;;;;;;;26.10;11.70;;;;;;;;;;5050999;28;20036;-66
2021/12/14 07:22:33;;;;;;;21.70;12.13;;;;;;;;;;5050538;28;20082;-66
2021/12/14 07:25:23;;;;;;;25.27;11.52;;;;;;;;;;5050297;28;20033;-61
2021/12/14 07:27:49;;;;;;;23.58;11.93;;;;;;;;;;5047955;28;20555;-66
2021/12/14 07:30:23;;;;;;;21.65;11.48;;;;;;;;;;5049759;28;20415;-65
2021/12/14 07:32:56;;;;;;;19.17;10.88;;;;;;;;;;5052960;28;20067;-66
2021/12/14 07:35:27;;;;;;;22.67;10.77;;;;;;;;;;5054484;28;20028;-66
2021/12/14 07:37:58;;;;;;;22.50;11.35;;;;;;;;;;5054136;28;20066;-65
2021/12/14 07:40:33;;;;;;;20.60;10.57;;;;;;;;;;5051470;28;20098;-66
2021/12/14 07:43:09;;;;;;;20.45;9.75;;;;;;;;;;5054399;28;20021;-66
2021/12/14 07:45:34;;;;;;;17.70;10.38;;;;;;;;;;5054401;28;20043;-66
2021/12/14 07:48:00;;;;;;;19.27;10.20;;;;;;;;;;5054002;28;20037;-62
2021/12/14 07:50:57;;;;;;;19.75;10.80;;;;;;;;;;5054232;28;20108;-66
2021/12/14 07:53:38;;;;;;;18.63;10.75;;;;;;;;;;5052427;28;20050;-67
2021/12/14 07:56:04;;;;;;;19.67;10.95;;;;;;;;;;5046424;28;20067;-61
2021/12/14 07:58:40;;;;;;;23.85;12.27;;;;;;;;;;5053347;28;20060;-66
2021/12/14 08:01:07;;;;;;;24.02;11.38;;;;;;;;;;5052060;28;20052;-66
2021/12/14 08:03:33;;;;;;;19.27;10.73;;;;;;;;;;5047657;28;20017;-67
2021/12/14 08:06:08;;;;;;;21.10;10.63;;;;;;;;;;5051827;28;20036;-66
2021/12/14 08:08:44;;;;;;;19.90;10.13;;;;;;;;;;5054305;28;20089;-65
2021/12/14 08:14:13;;;;;;;19.23;10.25;;;;;;;;;;5054329;28;20029;-66
2021/12/14 08:16:52;;;;;;;18.42;9.90;;;;;;;;;;5054254;28;20484;-63
2021/12/14 08:19:43;;;;;;;17.70;10.13;;;;;;;;;;5053335;28;20029;-64
2021/12/14 08:22:13;;;;;;;20.55;11.00;;;;;;;;;;5052829;28;20057;-59
2021/12/14 08:24:46;;;;;;;17.63;10.85;;;;;;;;;;5054132;28;20107;-60
2021/12/14 08:27:17;;;;;;;20.13;11.10;;;;;;;;;;5054512;28;20033;-61
2021/12/14 08:29:50;;;;;;;15.63;8.57;;;;;;;;;;5052301;28;20071;-66
2021/12/14 08:32:20;;;;;;;20.35;10.95;;;;;;;;;;5054124;28;20033;-60
2021/12/14 08:34:48;;;;;;;20.52;9.98;;;;;;;;;;5052444;28;20471;-66
2021/12/14 08:37:16;;;;;;;17.80;9.90;;;;;;;;;;5044344;28;20079;-62
2021/12/14 08:39:49;;;;;;;19.73;10.20;;;;;;;;;;5058674;28;20585;-59
2021/12/14 08:42:39;;;;;;;22.45;11.00;;;;;;;;;;5045107;28;20394;-66
2021/12/14 08:45:25;;;;;;;20.10;9.70;;;;;;;;;;5043596;28;20033;-64
2021/12/14 08:48:05;;;;;;;21.13;9.95;;;;;;;;;;5048873;28;20110;-66
2021/12/14 08:50:48;;;;;;;19.13;9.98;;;;;;;;;;5064115;28;20056;-66
2021/12/14 08:53:15;;;;;;;20.98;9.68;;;;;;;;;;5053370;28;20033;-65
2021/12/14 08:55:44;;;;;;;18.00;9.93;;;;;;;;;;5050706;28;20037;-63
2021/12/14 08:58:11;;;;;;;16.67;9.13;;;;;;;;;;5055164;28;20551;-64
2021/12/14 09:00:46;;;;;;;16.58;9.02;;;;;;;;;;5051077;28;20040;-65
2021/12/14 09:03:15;;;;;;;17.38;9.73;;;;;;;;;;5051673;28;20132;-64
2021/12/14 09:05:47;;;;;;;17.77;9.40;;;;;;;;;;5052808;28;20099;-65
2021/12/14 09:08:16;;;;;;;16.27;8.88;;;;;;;;;;5052566;28;20422;-65
2021/12/14 09:10:43;;;;;;;15.02;8.55;;;;;;;;;;5052738;28;20025;-64
2021/12/14 09:13:12;;;;;;;17.77;8.70;;;;;;;;;;5053331;28;20036;-64
2021/12/14 09:15:42;;;;;;;17.13;8.90;;;;;;;;;;5053097;28;20480;-66
2021/12/14 09:18:09;;;;;;;16.27;8.50;;;;;;;;;;5053296;28;20025;-65
2021/12/14 09:20:42;;;;;;;18.02;8.70;;;;;;;;;;5053211;28;20067;-65
2021/12/14 09:23:33;;;;;;;14.98;8.80;;;;;;;;;;5053200;28;20025;-65
2021/12/14 09:26:03;;;;;;;15.77;8.45;;;;;;;;;;5053067;28;20078;-65
2021/12/14 09:28:30;;;;;;;18.60;9.57;;;;;;;;;;5053257;28;20434;-65
2021/12/14 09:30:59;;;;;;;17.35;8.80;;;;;;;;;;5043269;28;20689;-65
2021/12/14 09:33:27;;;;;;;18.03;9.30;;;;;;;;;;5056830;28;20392;-65
2021/12/14 09:35:57;;;;;;;15.82;8.30;;;;;;;;;;5058304;28;20527;-64
2021/12/14 09:38:33;;;;;;;17.90;8.15;;;;;;;;;;5048123;28;20033;-65
2021/12/14 09:41:04;;;;;;;14.13;8.07;;;;;;;;;;5053222;28;20132;-65
2021/12/14 09:43:30;;;;;;;17.67;7.75;;;;;;;;;;5057066;28;20093;-65
2021/12/14 09:46:00;;;;;;;12.95;7.63;;;;;;;;;;5051117;28;20057;-64
2021/12/14 09:48:30;;;;;;;15.93;8.35;;;;;;;;;;5056230;28;20075;-67
2021/12/14 09:50:57;;;;;;;13.18;8.10;;;;;;;;;;5049912;28;20074;-65
2021/12/14 09:53:25;;;;;;;16.23;7.82;;;;;;;;;;5049263;28;20048;-62
2021/12/14 09:55:53;;;;;;;16.80;8.15;;;;;;;;;;5049461;28;20029;-62
2021/12/14 09:58:23;;;;;;;13.57;8.18;;;;;;;;;;5051752;28;20059;-63
2021/12/14 10:00:57;;;;;;;14.93;8.25;;;;;;;;;;5050916;28;20025;-62
2021/12/14 10:03:23;;;;;;;16.67;8.07;;;;;;;;;;5053698;28;20427;-61
2021/12/14 10:05:54;;;;;;;13.77;7.65;;;;;;;;;;5036561;28;20092;-60
2021/12/14 10:08:22;;;;;;;;;;;;;;;;;;5053108;28;20031;-58
2021/12/14 10:11:04;;;;;;;11.80;7.05;;;;;;;;;;5051464;28;19921;-61
2021/12/14 10:13:31;;;;;;;15.90;7.43;;;;;;;;;;5050645;28;20029;-57
2021/12/14 10:15:58;;;;;;;12.73;7.05;;;;;;;;;;5053020;28;20060;-58
2021/12/14 10:18:39;;;;;;;14.73;7.63;;;;;;;;;;5051896;28;20407;-62
2021/12/14 10:21:20;;;;;;;12.93;8.00;;;;;;;;;;5044767;28;20030;-63
2021/12/14 10:23:50;;;;;;;13.05;7.53;;;;;;;;;;5047504;28;20029;-58
2021/12/14 10:26:17;;;;;;;11.70;7.23;;;;;;;;;;5057258;28;20040;-58
2021/12/14 10:28:47;;;;;;;14.10;7.05;;;;;;;;;;5051845;28;20269;-60
2021/12/14 10:31:29;;;;;;;11.80;6.65;;;;;;;;;;5050856;28;20029;-58
2021/12/14 10:33:58;;;;;;;12.75;6.75;;;;;;;;;;5050110;28;20025;-59
2021/12/14 10:36:33;;;;;;;11.65;6.50;;;;;;;;;;5052061;28;20108;-59
2021/12/14 10:39:09;;;;;;;12.40;7.13;;;;;;;;;;5052218;28;20029;-58
2021/12/14 10:44:22;;;;;;;17.23;8.90;;;;;;;;;;5052487;28;20048;-66
2021/12/14 10:46:51;;;;;;;19.67;8.73;;;;;;;;;;5041878;28;20092;-65
2021/12/14 10:49:20;;;;;;;17.70;8.90;;;;;;;;;;5051823;28;20476;-66
2021/12/14 10:51:53;;;;;;;19.00;8.98;;;;;;;;;;5051919;28;20523;-65
2021/12/14 10:54:19;;;;;;;15.75;7.13;;;;;;;;;;5051955;28;20021;-64
2021/12/14 10:57:23;;;;;;;12.57;7.47;;;;;;;;;;5051904;28;20021;-65
2021/12/14 10:59:51;;;;;;;15.88;7.57;;;;;;;;;;5029724;28;20080;-65
2021/12/14 11:02:20;;;;;;;15.27;7.75;;;;;;;;;;5029799;28;20087;-66
2021/12/14 11:04:54;;;;;;;12.27;7.35;;;;;;;;;;5031539;28;20044;-65
2021/12/14 11:07:39;;;;;;;13.85;7.72;;;;;;;;;;5033984;28;20359;-66
2021/12/14 11:10:08;;;;;;;12.05;7.07;;;;;;;;;;5033555;28;20381;-65
2021/12/14 11:12:37;;;;;;;14.23;7.28;;;;;;;;;;5032361;28;20488;-66
2021/12/14 11:15:11;;;;;;;11.45;6.88;;;;;;;;;;5031465;28;20250;-66
2021/12/14 11:20:37;;;;;;;12.88;6.47;;;;;;;;;;5031677;28;20069;-65
2021/12/14 11:23:05;;;;;;;11.30;6.93;;;;;;;;;;5030928;28;20109;-65
2021/12/14 11:25:34;;;;;;;11.13;6.55;;;;;;;;;;5031284;28;20029;-63
2021/12/14 11:28:07;;;;;;;12.65;7.60;;;;;;;;;;5032811;28;20037;-63
2021/12/14 11:30:38;;;;;;;11.88;7.47;;;;;;;;;;5031811;28;20031;-65
2021/12/14 11:33:13;;;;;;;11.85;7.22;;;;;;;;;;5017886;28;20033;-60
2021/12/14 11:36:15;;;;;;;11.77;6.78;;;;;;;;;;5053449;28;20028;-60
2021/12/14 11:38:42;;;;;;;12.63;6.72;;;;;;;;;;5058083;28;20033;-62
2021/12/14 11:41:29;;;;;;;14.27;7.30;;;;;;;;;;5053559;28;20041;-60
2021/12/14 11:44:00;;;;;;;13.52;7.78;;;;;;;;;;5044100;28;20029;-64
2021/12/14 11:46:29;;;;;;;13.43;7.47;;;;;;;;;;5051597;28;20111;-64
2021/12/14 11:48:57;;;;;;;15.30;7.85;;;;;;;;;;5049511;28;20369;-63
2021/12/14 11:51:24;;;;;;;13.23;7.65;;;;;;;;;;5054530;28;20025;-65
2021/12/14 11:53:52;;;;;;;13.40;7.82;;;;;;;;;;5054275;28;20060;-60
2021/12/14 11:56:21;;;;;;;11.77;7.03;;;;;;;;;;5054489;28;20025;-59
2021/12/14 11:58:55;;;;;;;14.80;8.07;;;;;;;;;;5055663;28;20103;-64
2021/12/14 12:01:44;;;;;;;13.70;8.13;;;;;;;;;;5054648;28;20495;-60
2021/12/14 12:04:11;;;;;;;14.90;8.00;;;;;;;;;;5054483;28;20075;-63
2021/12/14 12:09:35;;;;;;;13.77;7.88;;;;;;;;;;5053389;28;20029;-59
2021/12/14 12:12:03;;;;;;;15.02;8.48;;;;;;;;;;5050975;28;20467;-66
2021/12/14 12:14:33;;;;;;;15.63;8.48;;;;;;;;;;5053958;28;20078;-60
2021/12/14 12:17:37;;;;;;;15.32;8.40;;;;;;;;;;5054517;28;20486;-62
2021/12/14 12:20:12;;;;;;;17.10;8.52;;;;;;;;;;5045255;28;20511;-58
2021/12/14 12:23:03;;;;;;;15.07;8.40;;;;;;;;;;5054364;28;20024;-60
2021/12/14 12:25:29;;;;;;;15.93;8.27;;;;;;;;;;5054151;28;20029;-59
2021/12/14 12:27:54;;;;;;;14.00;7.28;;;;;;;;;;5054488;28;20372;-60
2021/12/14 12:30:42;;;;;;;16.17;8.45;;;;;;;;;;5054134;28;20033;-59
2021/12/14 12:33:19;;;;;;;17.95;9.98;;;;;;;;;;5053905;28;20060;-58
2021/12/14 12:36:13;;;;;;;19.98;10.57;;;;;;;;;;5051206;28;20029;-58
2021/12/14 12:39:00;;;;;;;20.08;10.98;;;;;;;;;;5051701;28;20085;-58
2021/12/14 12:41:50;;;;;;;16.52;9.20;;;;;;;;;;5047680;28;20408;-59
2021/12/14 12:44:40;;;;;;;21.23;9.77;;;;;;;;;;5054105;28;20029;-58
2021/12/14 12:47:16;;;;;;;16.50;9.32;;;;;;;;;;5054021;28;20025;-66
2021/12/14 12:49:48;;;;;;;20.13;9.13;;;;;;;;;;5053837;28;20036;-65
2021/12/14 12:52:15;;;;;;;21.92;11.82;;;;;;;;;;5054001;28;20031;-66
2021/12/14 12:54:54;;;;;;;22.35;11.25;;;;;;;;;;5053639;28;20475;-66
2021/12/14 12:57:30;;;;;;;20.02;10.93;;;;;;;;;;5053791;28;20052;-66
2021/12/14 13:00:08;;;;;;;19.60;10.27;;;;;;;;;;5053720;28;20087;-65
2021/12/14 13:02:43;;;;;;;16.77;9.32;;;;;;;;;;5053820;28;20039;-66
2021/12/14 13:05:20;;;;;;;19.40;10.10;;;;;;;;;;5042039;28;20029;-66
2021/12/14 13:08:04;;;;;;;19.33;9.85;;;;;;;;;;5053364;28;20124;-65
2021/12/14 13:10:38;;;;;;;17.90;9.48;;;;;;;;;;5052208;28;20029;-66
2021/12/14 13:13:19;;;;;;;18.35;9.48;;;;;;;;;;5053123;28;20037;-65
2021/12/14 13:16:00;;;;;;;21.90;11.20;;;;;;;;;;5053137;28;20112;-61
2021/12/14 13:18:47;;;;;;;20.70;11.13;;;;;;;;;;5053592;28;20112;-65
2021/12/14 13:21:24;;;;;;;18.40;10.25;;;;;;;;;;5055043;28;20035;-60
2021/12/14 13:23:55;;;;;;;20.88;12.35;;;;;;;;;;5053272;28;20032;-65
2021/12/14 13:26:33;;;;;;;19.13;10.43;;;;;;;;;;5052070;28;20032;-62
2021/12/14 13:29:04;;;;;;;18.70;10.00;;;;;;;;;;5051762;28;20025;-64
2021/12/14 13:31:37;;;;;;;20.13;9.73;;;;;;;;;;5042852;28;20029;-63
2021/12/14 13:34:07;;;;;;;19.98;10.23;;;;;;;;;;5052989;28;20391;-66
2021/12/14 13:36:34;;;;;;;19.13;9.93;;;;;;;;;;5052651;28;20031;-61
2021/12/14 13:39:00;;;;;;;22.95;11.75;;;;;;;;;;5052951;28;20027;-57
2021/12/14 13:41:53;;;;;;;21.92;10.90;;;;;;;;;;5052525;28;20044;-60
2021/12/14 13:44:18;;;;;;;19.65;10.05;;;;;;;;;;5052993;28;20462;-62
2021/12/14 13:46:44;;;;;;;19.13;10.10;;;;;;;;;;5052526;28;20083;-59
2021/12/14 13:49:11;;;;;;;21.02;10.82;;;;;;;;;;5052470;28;20112;-60
2021/12/14 13:51:37;;;;;;;19.77;10.38;;;;;;;;;;5052353;28;20025;-61
2021/12/14 13:54:04;;;;;;;91.47;25.60;;;;;;;;;;5052220;28;20086;-59
2021/12/14 13:56:38;;;;;;;42.35;17.55;;;;;;;;;;5052600;28;20533;-65
2021/12/14 13:59:06;;;;;;;22.17;11.82;;;;;;;;;;5052793;28;20383;-64
2021/12/14 14:01:35;;;;;;;20.48;9.85;;;;;;;;;;5052211;28;20108;-63
2021/12/14 14:04:07;;;;;;;17.80;9.50;;;;;;;;;;5052525;28;20856;-66
2021/12/14 14:06:33;;;;;;;17.63;9.30;;;;;;;;;;5051090;28;20032;-63
2021/12/14 14:09:04;;;;;;;18.55;9.43;;;;;;;;;;5052295;28;20463;-66
2021/12/14 14:11:34;;;;;;;18.95;9.48;;;;;;;;;;5052378;28;20458;-66
2021/12/14 14:14:04;;;;;;;19.15;10.57;;;;;;;;;;5052079;28;20021;-66
2021/12/14 14:16:51;;;;;;;17.90;10.00;;;;;;;;;;5052174;28;20021;-59
2021/12/14 14:19:38;;;;;;;18.00;9.80;;;;;;;;;;5051474;28;20021;-64
2021/12/14 14:22:17;;;;;;;17.90;9.88;;;;;;;;;;5046533;28;20067;-65
2021/12/14 14:24:46;;;;;;;20.25;9.75;;;;;;;;;;5051603;28;20033;-66
2021/12/14 14:27:30;;;;;;;18.77;10.00;;;;;;;;;;5052106;28;20052;-65
2021/12/14 14:29:56;;;;;;;19.45;10.55;;;;;;;;;;5052027;28;20067;-65
2021/12/14 14:32:35;;;;;;;17.80;10.73;;;;;;;;;;5052236;28;20032;-60
2021/12/14 14:35:05;;;;;;;18.27;9.63;;;;;;;;;;5052297;28;20037;-64
2021/12/14 14:37:36;;;;;;;17.55;9.35;;;;;;;;;;5054187;28;20025;-59
2021/12/14 14:40:05;;;;;;;27.08;11.10;;;;;;;;;;5058530;28;20458;-59
2021/12/14 14:42:34;;;;;;;22.33;11.55;;;;;;;;;;5058775;28;20113;-59
2021/12/14 14:45:12;;;;;;;24.42;11.15;;;;;;;;;;5058749;28;20124;-59
2021/12/14 14:47:40;;;;;;;19.60;10.20;;;;;;;;;;5058528;28;20434;-57
2021/12/14 14:50:06;;;;;;;20.63;10.80;;;;;;;;;;5048335;28;20503;-66
2021/12/14 14:52:38;;;;;;;23.27;11.57;;;;;;;;;;5052687;28;20037;-65
2021/12/14 14:55:13;;;;;;;24.52;12.43;;;;;;;;;;5051419;28;20476;-62
2021/12/14 14:57:43;;;;;;;22.35;11.68;;;;;;;;;;5059551;28;20090;-64
2021/12/14 15:00:14;;;;;;;21.90;11.73;;;;;;;;;;5051733;28;20036;-67
2021/12/14 15:02:48;;;;;;;21.88;11.15;;;;;;;;;;5064273;28;20033;-59
2021/12/14 15:05:31;;;;;;;22.92;12.20;;;;;;;;;;5065623;28;20063;-66
2021/12/14 15:08:13;;;;;;;20.30;10.45;;;;;;;;;;5057058;28;20430;-65
2021/12/14 15:10:45;;;;;;;22.95;11.40;;;;;;;;;;5053884;28;20025;-66
2021/12/14 15:13:19;;;;;;;22.98;11.68;;;;;;;;;;5057637;28;20087;-66
2021/12/14 15:16:06;;;;;;;22.48;11.40;;;;;;;;;;5057956;28;20017;-65
2021/12/14 15:19:05;;;;;;;24.83;12.88;;;;;;;;;;5058398;28;20031;-62
2021/12/14 15:21:33;;;;;;;60.03;18.55;;;;;;;;;;5057942;28;20021;-60
2021/12/14 15:24:28;;;;;;;107.78;38.50;;;;;;;;;;5058321;28;20082;-61
2021/12/14 15:27:06;;;;;;;120.15;50.42;;;;;;;;;;5054095;28;20067;-57
2021/12/14 15:29:38;;;;;;;51.50;28.70;;;;;;;;;;5055149;28;20028;-58
2021/12/14 15:32:19;;;;;;;42.75;25.90;;;;;;;;;;5057158;28;20120;-62
2021/12/14 15:34:50;;;;;;;41.35;21.65;;;;;;;;;;5054537;28;20491;-59